sensor_id;sensor_type;location;lat;lon;timestamp;P1;P2;P0
44045;PMS7003;29709;52.396;16.796;2023-07-29T00:01:52;2;1;1
44045;PMS7003;29709;52.396;16.796;2023-07-29T00:05:07;2;2;2
44045;PMS7003;29709;52.396;16.796;2023-07-29T00:08:20;2;2;2
44045;PMS7003;29709;52.396;16.796;2023-07-29T00:11:34;1;1;1
44045;PMS7003;29709;52.396;16.796;2023-07-29T00:14:47;2;2;2
44045;PMS7003;29709;52.396;16.796;2023-07-29T00:18:00;2;1;1
44045;PMS7003;29709;52.396;16.796;2023-07-29T00:21:14;1;1;1
44045;PMS7003;29709;52.396;16.796;2023-07-29T00:24:27;1;1;0
44045;PMS7003;29709;52.396;16.796;2023-07-29T00:27:40;1;1;1
44045;PMS7003;29709;52.396;16.796;2023-07-29T00:30:54;3;2;2
44045;PMS7003;29709;52.396;16.796;2023-07-29T00:34:08;2;1;1
44045;PMS7003;29709;52.396;16.796;2023-07-29T00:37:22;2;1;1
44045;PMS7003;29709;52.396;16.796;2023-07-29T00:40:35;2;1;1
44045;PMS7003;29709;52.396;16.796;2023-07-29T00:43:49;2;2;1
44045;PMS7003;29709;52.396;16.796;2023-07-29T00:47:03;2;1;1
44045;PMS7003;29709;52.396;16.796;2023-07-29T00:50:18;2;2;1
44045;PMS7003;29709;52.396;16.796;2023-07-29T00:53:32;1;1;1
44045;PMS7003;29709;52.396;16.796;2023-07-29T00:56:45;1;1;1
44045;PMS7003;29709;52.396;16.796;2023-07-29T00:59:58;0;0;0
44045;PMS7003;29709;52.396;16.796;2023-07-29T01:03:13;2;2;2
44045;PMS7003;29709;52.396;16.796;2023-07-29T01:06:45;3;2;2
44045;PMS7003;29709;52.396;16.796;2023-07-29T01:13:17;2;2;1
44045;PMS7003;29709;52.396;16.796;2023-07-29T01:16:41;2;2;1
44045;PMS7003;29709;52.396;16.796;2023-07-29T01:20:00;2;2;1
44045;PMS7003;29709;52.396;16.796;2023-07-29T01:23:23;2;2;1
44045;PMS7003;29709;52.396;16.796;2023-07-29T01:26:37;3;2;2
44045;PMS7003;29709;52.396;16.796;2023-07-29T01:29:50;2;2;2
44045;PMS7003;29709;52.396;16.796;2023-07-29T01:33:09;2;2;2
44045;PMS7003;29709;52.396;16.796;2023-07-29T01:36:30;2;2;2
44045;PMS7003;29709;52.396;16.796;2023-07-29T01:39:46;2;2;2
44045;PMS7003;29709;52.396;16.796;2023-07-29T01:43:02;2;2;2
44045;PMS7003;29709;52.396;16.796;2023-07-29T01:46:16;2;2;2
44045;PMS7003;29709;52.396;16.796;2023-07-29T01:49:29;4;2;2
44045;PMS7003;29709;52.396;16.796;2023-07-29T01:52:42;2;2;1
44045;PMS7003;29709;52.396;16.796;2023-07-29T01:55:55;3;3;2
44045;PMS7003;29709;52.396;16.796;2023-07-29T01:59:09;2;2;2
44045;PMS7003;29709;52.396;16.796;2023-07-29T02:02:23;4;3;2
44045;PMS7003;29709;52.396;16.796;2023-07-29T02:05:36;3;3;2
44045;PMS7003;29709;52.396;16.796;2023-07-29T02:08:49;1;0;0
44045;PMS7003;29709;52.396;16.796;2023-07-29T02:12:02;4;3;3
44045;PMS7003;29709;52.396;16.796;2023-07-29T02:15:16;3;2;1
44045;PMS7003;29709;52.396;16.796;2023-07-29T02:18:29;4;2;2
44045;PMS7003;29709;52.396;16.796;2023-07-29T02:21:42;3;3;2
44045;PMS7003;29709;52.396;16.796;2023-07-29T02:24:55;4;2;2
44045;PMS7003;29709;52.396;16.796;2023-07-29T02:28:09;2;2;1
44045;PMS7003;29709;52.396;16.796;2023-07-29T02:31:23;2;2;2
44045;PMS7003;29709;52.396;16.796;2023-07-29T02:34:36;2;2;2
44045;PMS7003;29709;52.396;16.796;2023-07-29T02:37:50;2;2;2
44045;PMS7003;29709;52.396;16.796;2023-07-29T02:41:03;2;1;1
44045;PMS7003;29709;52.396;16.796;2023-07-29T02:44:16;2;1;1
44045;PMS7003;29709;52.396;16.796;2023-07-29T02:47:30;2;2;1
44045;PMS7003;29709;52.396;16.796;2023-07-29T02:50:43;1;1;1
44045;PMS7003;29709;52.396;16.796;2023-07-29T02:53:57;3;2;2
44045;PMS7003;29709;52.396;16.796;2023-07-29T02:57:10;1;1;1
44045;PMS7003;29709;52.396;16.796;2023-07-29T03:00:23;2;2;1
44045;PMS7003;29709;52.396;16.796;2023-07-29T03:03:36;1;1;1
44045;PMS7003;29709;52.396;16.796;2023-07-29T03:06:50;2;2;2
44045;PMS7003;29709;52.396;16.796;2023-07-29T03:10:03;2;2;2
44045;PMS7003;29709;52.396;16.796;2023-07-29T03:13:16;2;2;2
44045;PMS7003;29709;52.396;16.796;2023-07-29T03:16:30;2;2;2
44045;PMS7003;29709;52.396;16.796;2023-07-29T03:19:43;2;2;2
44045;PMS7003;29709;52.396;16.796;2023-07-29T03:22:56;4;1;1
44045;PMS7003;29709;52.396;16.796;2023-07-29T03:26:09;3;3;2
44045;PMS7003;29709;52.396;16.796;2023-07-29T03:29:23;2;2;1
44045;PMS7003;29709;52.396;16.796;2023-07-29T03:32:39;3;3;2
44045;PMS7003;29709;52.396;16.796;2023-07-29T03:35:56;2;1;1
44045;PMS7003;29709;52.396;16.796;2023-07-29T03:39:09;3;3;2
44045;PMS7003;29709;52.396;16.796;2023-07-29T03:42:22;2;2;2
44045;PMS7003;29709;52.396;16.796;2023-07-29T03:45:35;3;2;2
44045;PMS7003;29709;52.396;16.796;2023-07-29T03:48:49;3;2;2
44045;PMS7003;29709;52.396;16.796;2023-07-29T03:52:02;3;2;2
44045;PMS7003;29709;52.396;16.796;2023-07-29T03:55:15;2;2;2
44045;PMS7003;29709;52.396;16.796;2023-07-29T03:58:29;4;3;3
44045;PMS7003;29709;52.396;16.796;2023-07-29T04:01:42;3;3;2
44045;PMS7003;29709;52.396;16.796;2023-07-29T04:04:55;3;3;2
44045;PMS7003;29709;52.396;16.796;2023-07-29T04:08:08;1;1;1
44045;PMS7003;29709;52.396;16.796;2023-07-29T04:11:22;2;2;1
44045;PMS7003;29709;52.396;16.796;2023-07-29T04:14:36;2;2;2
44045;PMS7003;29709;52.396;16.796;2023-07-29T04:17:49;1;1;1
44045;PMS7003;29709;52.396;16.796;2023-07-29T04:21:02;2;2;1
44045;PMS7003;29709;52.396;16.796;2023-07-29T04:24:16;2;2;2
44045;PMS7003;29709;52.396;16.796;2023-07-29T04:27:29;3;2;1
44045;PMS7003;29709;52.396;16.796;2023-07-29T04:30:42;3;1;1
44045;PMS7003;29709;52.396;16.796;2023-07-29T04:33:55;2;1;1
44045;PMS7003;29709;52.396;16.796;2023-07-29T04:37:08;3;3;2
44045;PMS7003;29709;52.396;16.796;2023-07-29T04:40:21;3;2;1
44045;PMS7003;29709;52.396;16.796;2023-07-29T04:43:35;4;3;2
44045;PMS7003;29709;52.396;16.796;2023-07-29T04:46:49;4;3;3
44045;PMS7003;29709;52.396;16.796;2023-07-29T04:50:02;4;3;2
44045;PMS7003;29709;52.396;16.796;2023-07-29T04:53:15;3;3;2
44045;PMS7003;29709;52.396;16.796;2023-07-29T04:56:28;4;3;2
44045;PMS7003;29709;52.396;16.796;2023-07-29T04:59:42;5;3;2
44045;PMS7003;29709;52.396;16.796;2023-07-29T05:02:55;3;3;2
44045;PMS7003;29709;52.396;16.796;2023-07-29T05:06:08;5;4;3
44045;PMS7003;29709;52.396;16.796;2023-07-29T05:09:21;4;4;3
44045;PMS7003;29709;52.396;16.796;2023-07-29T05:12:35;5;3;2
44045;PMS7003;29709;52.396;16.796;2023-07-29T05:15:48;2;1;1
44045;PMS7003;29709;52.396;16.796;2023-07-29T05:19:02;4;3;3
44045;PMS7003;29709;52.396;16.796;2023-07-29T05:22:15;4;3;3
44045;PMS7003;29709;52.396;16.796;2023-07-29T05:25:28;4;3;2
44045;PMS7003;29709;52.396;16.796;2023-07-29T05:28:41;5;4;3
44045;PMS7003;29709;52.396;16.796;2023-07-29T05:31:54;5;3;3
44045;PMS7003;29709;52.396;16.796;2023-07-29T05:35:09;3;3;3
44045;PMS7003;29709;52.396;16.796;2023-07-29T05:38:23;4;4;3
44045;PMS7003;29709;52.396;16.796;2023-07-29T05:41:36;4;3;3
44045;PMS7003;29709;52.396;16.796;2023-07-29T05:44:49;4;4;3
44045;PMS7003;29709;52.396;16.796;2023-07-29T05:48:02;4;4;3
44045;PMS7003;29709;52.396;16.796;2023-07-29T05:51:16;5;5;3
44045;PMS7003;29709;52.396;16.796;2023-07-29T05:54:29;4;3;3
44045;PMS7003;29709;52.396;16.796;2023-07-29T05:57:42;6;4;3
44045;PMS7003;29709;52.396;16.796;2023-07-29T06:00:55;5;4;3
44045;PMS7003;29709;52.396;16.796;2023-07-29T06:04:08;5;5;4
44045;PMS7003;29709;52.396;16.796;2023-07-29T06:07:21;4;4;3
44045;PMS7003;29709;52.396;16.796;2023-07-29T06:10:35;3;3;2
44045;PMS7003;29709;52.396;16.796;2023-07-29T06:13:48;3;3;2
44045;PMS7003;29709;52.396;16.796;2023-07-29T06:17:01;5;4;3
44045;PMS7003;29709;52.396;16.796;2023-07-29T06:20:14;8;6;4
44045;PMS7003;29709;52.396;16.796;2023-07-29T06:23:28;5;4;3
44045;PMS7003;29709;52.396;16.796;2023-07-29T06:26:41;3;3;3
44045;PMS7003;29709;52.396;16.796;2023-07-29T06:29:54;4;4;3
44045;PMS7003;29709;52.396;16.796;2023-07-29T06:33:07;6;5;4
44045;PMS7003;29709;52.396;16.796;2023-07-29T06:36:22;5;4;3
44045;PMS7003;29709;52.396;16.796;2023-07-29T06:39:35;5;4;4
44045;PMS7003;29709;52.396;16.796;2023-07-29T06:42:48;6;4;4
44045;PMS7003;29709;52.396;16.796;2023-07-29T06:46:01;5;4;3
44045;PMS7003;29709;52.396;16.796;2023-07-29T06:49:15;8;6;5
44045;PMS7003;29709;52.396;16.796;2023-07-29T06:52:28;6;5;4
44045;PMS7003;29709;52.396;16.796;2023-07-29T06:55:41;5;4;4
44045;PMS7003;29709;52.396;16.796;2023-07-29T06:58:55;6;5;4
44045;PMS7003;29709;52.396;16.796;2023-07-29T07:02:08;9;6;5
44045;PMS7003;29709;52.396;16.796;2023-07-29T07:05:21;5;5;4
44045;PMS7003;29709;52.396;16.796;2023-07-29T07:08:34;5;5;4
44045;PMS7003;29709;52.396;16.796;2023-07-29T07:11:47;7;5;4
44045;PMS7003;29709;52.396;16.796;2023-07-29T07:15:01;7;6;5
44045;PMS7003;29709;52.396;16.796;2023-07-29T07:18:15;7;5;4
44045;PMS7003;29709;52.396;16.796;2023-07-29T07:21:28;4;4;3
44045;PMS7003;29709;52.396;16.796;2023-07-29T07:24:41;5;4;3
44045;PMS7003;29709;52.396;16.796;2023-07-29T07:27:54;5;4;3
44045;PMS7003;29709;52.396;16.796;2023-07-29T07:31:07;5;5;3
44045;PMS7003;29709;52.396;16.796;2023-07-29T07:34:21;3;3;2
44045;PMS7003;29709;52.396;16.796;2023-07-29T07:37:35;6;5;4
44045;PMS7003;29709;52.396;16.796;2023-07-29T07:44:09;4;3;2
44045;PMS7003;29709;52.396;16.796;2023-07-29T07:47:27;3;2;1
44045;PMS7003;29709;52.396;16.796;2023-07-29T07:50:40;2;1;1
44045;PMS7003;29709;52.396;16.796;2023-07-29T07:53:54;3;2;2
44045;PMS7003;29709;52.396;16.796;2023-07-29T07:57:07;3;3;2
44045;PMS7003;29709;52.396;16.796;2023-07-29T08:00:20;4;3;2
44045;PMS7003;29709;52.396;16.796;2023-07-29T08:03:33;4;3;2
44045;PMS7003;29709;52.396;16.796;2023-07-29T08:06:47;5;3;3
44045;PMS7003;29709;52.396;16.796;2023-07-29T08:10:00;6;3;1
44045;PMS7003;29709;52.396;16.796;2023-07-29T08:13:13;3;3;2
44045;PMS7003;29709;52.396;16.796;2023-07-29T08:16:27;4;2;1
44045;PMS7003;29709;52.396;16.796;2023-07-29T08:19:40;5;4;3
44045;PMS7003;29709;52.396;16.796;2023-07-29T08:22:53;3;3;2
44045;PMS7003;29709;52.396;16.796;2023-07-29T08:26:06;8;5;5
44045;PMS7003;29709;52.396;16.796;2023-07-29T08:29:19;4;4;3
44045;PMS7003;29709;52.396;16.796;2023-07-29T08:34:47;6;3;2
44045;PMS7003;29709;52.396;16.796;2023-07-29T08:38:01;1;1;1
44045;PMS7003;29709;52.396;16.796;2023-07-29T08:41:19;5;4;3
44045;PMS7003;29709;52.396;16.796;2023-07-29T08:44:40;3;1;1
44045;PMS7003;29709;52.396;16.796;2023-07-29T08:47:55;2;1;1
44045;PMS7003;29709;52.396;16.796;2023-07-29T08:51:11;2;1;1
44045;PMS7003;29709;52.396;16.796;2023-07-29T08:54:25;3;1;1
44045;PMS7003;29709;52.396;16.796;2023-07-29T08:57:38;2;1;1
44045;PMS7003;29709;52.396;16.796;2023-07-29T09:00:51;0;0;0
44045;PMS7003;29709;52.396;16.796;2023-07-29T09:04:05;1;0;0
44045;PMS7003;29709;52.396;16.796;2023-07-29T09:07:18;1;0;0
44045;PMS7003;29709;52.396;16.796;2023-07-29T09:10:36;1;1;1
44045;PMS7003;29709;52.396;16.796;2023-07-29T09:13:50;2;1;0
44045;PMS7003;29709;52.396;16.796;2023-07-29T09:17:06;1;0;0
44045;PMS7003;29709;52.396;16.796;2023-07-29T09:20:24;1;1;0
44045;PMS7003;29709;52.396;16.796;2023-07-29T09:23:42;2;2;1
44045;PMS7003;29709;52.396;16.796;2023-07-29T09:26:56;1;1;1
44045;PMS7003;29709;52.396;16.796;2023-07-29T09:33:29;2;1;1
44045;PMS7003;29709;52.396;16.796;2023-07-29T09:36:50;0;0;0
44045;PMS7003;29709;52.396;16.796;2023-07-29T09:40:03;5;0;0
44045;PMS7003;29709;52.396;16.796;2023-07-29T09:43:17;2;1;1
44045;PMS7003;29709;52.396;16.796;2023-07-29T09:46:34;1;1;0
44045;PMS7003;29709;52.396;16.796;2023-07-29T09:49:49;2;1;1
44045;PMS7003;29709;52.396;16.796;2023-07-29T09:53:03;1;1;1
44045;PMS7003;29709;52.396;16.796;2023-07-29T09:56:17;3;1;1
44045;PMS7003;29709;52.396;16.796;2023-07-29T09:59:33;1;1;1
44045;PMS7003;29709;52.396;16.796;2023-07-29T10:02:47;1;0;0
44045;PMS7003;29709;52.396;16.796;2023-07-29T10:06:04;0;0;0
44045;PMS7003;29709;52.396;16.796;2023-07-29T10:09:18;2;2;1
44045;PMS7003;29709;52.396;16.796;2023-07-29T10:12:34;2;2;1
44045;PMS7003;29709;52.396;16.796;2023-07-29T10:15:48;2;2;1
44045;PMS7003;29709;52.396;16.796;2023-07-29T10:19:04;0;0;0
44045;PMS7003;29709;52.396;16.796;2023-07-29T10:22:18;2;1;1
44045;PMS7003;29709;52.396;16.796;2023-07-29T10:25:37;2;2;1
44045;PMS7003;29709;52.396;16.796;2023-07-29T10:28:54;1;1;0
44045;PMS7003;29709;52.396;16.796;2023-07-29T10:32:17;1;1;1
44045;PMS7003;29709;52.396;16.796;2023-07-29T10:35:35;0;0;0
44045;PMS7003;29709;52.396;16.796;2023-07-29T10:38:50;1;1;1
44045;PMS7003;29709;52.396;16.796;2023-07-29T10:42:05;2;1;0
44045;PMS7003;29709;52.396;16.796;2023-07-29T10:45:20;1;1;1
44045;PMS7003;29709;52.396;16.796;2023-07-29T10:51:53;0;0;0
44045;PMS7003;29709;52.396;16.796;2023-07-29T10:58:34;1;0;0
44045;PMS7003;29709;52.396;16.796;2023-07-29T11:01:51;3;2;2
44045;PMS7003;29709;52.396;16.796;2023-07-29T11:05:07;1;1;1
44045;PMS7003;29709;52.396;16.796;2023-07-29T11:08:32;4;2;1
44045;PMS7003;29709;52.396;16.796;2023-07-29T11:11:46;0;0;0
44045;PMS7003;29709;52.396;16.796;2023-07-29T11:15:04;2;1;1
44045;PMS7003;29709;52.396;16.796;2023-07-29T11:18:22;2;2;1
44045;PMS7003;29709;52.396;16.796;2023-07-29T11:21:39;1;1;1
44045;PMS7003;29709;52.396;16.796;2023-07-29T11:24:52;0;0;0
44045;PMS7003;29709;52.396;16.796;2023-07-29T11:28:05;1;1;1
44045;PMS7003;29709;52.396;16.796;2023-07-29T11:31:18;1;1;1
44045;PMS7003;29709;52.396;16.796;2023-07-29T11:34:32;1;0;0
44045;PMS7003;29709;52.396;16.796;2023-07-29T11:37:46;0;0;0
44045;PMS7003;29709;52.396;16.796;2023-07-29T11:41:01;0;0;0
44045;PMS7003;29709;52.396;16.796;2023-07-29T11:44:19;3;1;1
44045;PMS7003;29709;52.396;16.796;2023-07-29T11:47:33;1;1;1
44045;PMS7003;29709;52.396;16.796;2023-07-29T11:50:49;1;0;0
44045;PMS7003;29709;52.396;16.796;2023-07-29T11:54:04;1;1;1
44045;PMS7003;29709;52.396;16.796;2023-07-29T11:57:17;1;1;1
44045;PMS7003;29709;52.396;16.796;2023-07-29T12:00:31;0;0;0
44045;PMS7003;29709;52.396;16.796;2023-07-29T12:03:44;4;1;1
44045;PMS7003;29709;52.396;16.796;2023-07-29T12:06:58;1;1;0
44045;PMS7003;29709;52.396;16.796;2023-07-29T12:10:12;1;1;1
44045;PMS7003;29709;52.396;16.796;2023-07-29T12:13:25;1;1;0
44045;PMS7003;29709;52.396;16.796;2023-07-29T12:16:42;2;1;1
44045;PMS7003;29709;52.396;16.796;2023-07-29T12:19:56;0;0;0
44045;PMS7003;29709;52.396;16.796;2023-07-29T12:23:09;1;1;1
44045;PMS7003;29709;52.396;16.796;2023-07-29T12:26:26;1;0;0
44045;PMS7003;29709;52.396;16.796;2023-07-29T12:29:41;2;1;1
44045;PMS7003;29709;52.396;16.796;2023-07-29T12:32:55;0;0;0
44045;PMS7003;29709;52.396;16.796;2023-07-29T12:36:08;1;1;0
44045;PMS7003;29709;52.396;16.796;2023-07-29T12:39:27;1;0;0
44045;PMS7003;29709;52.396;16.796;2023-07-29T12:42:42;1;0;0
44045;PMS7003;29709;52.396;16.796;2023-07-29T12:45:56;3;0;0
44045;PMS7003;29709;52.396;16.796;2023-07-29T12:49:10;0;0;0
44045;PMS7003;29709;52.396;16.796;2023-07-29T12:52:23;1;0;0
44045;PMS7003;29709;52.396;16.796;2023-07-29T12:55:36;1;1;0
44045;PMS7003;29709;52.396;16.796;2023-07-29T12:58:49;0;0;0
44045;PMS7003;29709;52.396;16.796;2023-07-29T13:02:03;0;0;0
44045;PMS7003;29709;52.396;16.796;2023-07-29T13:05:16;2;0;0
44045;PMS7003;29709;52.396;16.796;2023-07-29T13:08:29;0;0;0
44045;PMS7003;29709;52.396;16.796;2023-07-29T13:11:43;1;0;0
44045;PMS7003;29709;52.396;16.796;2023-07-29T13:14:56;1;1;1
44045;PMS7003;29709;52.396;16.796;2023-07-29T13:18:09;1;0;0
44045;PMS7003;29709;52.396;16.796;2023-07-29T13:21:23;1;1;1
44045;PMS7003;29709;52.396;16.796;2023-07-29T13:24:36;1;1;0
44045;PMS7003;29709;52.396;16.796;2023-07-29T13:27:50;0;0;0
44045;PMS7003;29709;52.396;16.796;2023-07-29T13:31:03;1;1;0
44045;PMS7003;29709;52.396;16.796;2023-07-29T13:34:16;1;1;0
44045;PMS7003;29709;52.396;16.796;2023-07-29T13:37:29;1;1;0
44045;PMS7003;29709;52.396;16.796;2023-07-29T13:40:42;1;0;0
44045;PMS7003;29709;52.396;16.796;2023-07-29T13:43:56;2;1;1
44045;PMS7003;29709;52.396;16.796;2023-07-29T13:47:09;1;1;1
44045;PMS7003;29709;52.396;16.796;2023-07-29T13:50:22;0;0;0
44045;PMS7003;29709;52.396;16.796;2023-07-29T13:53:35;0;0;0
44045;PMS7003;29709;52.396;16.796;2023-07-29T13:56:48;3;3;2
44045;PMS7003;29709;52.396;16.796;2023-07-29T14:00:02;0;0;0
44045;PMS7003;29709;52.396;16.796;2023-07-29T14:03:16;0;0;0
44045;PMS7003;29709;52.396;16.796;2023-07-29T14:06:29;0;0;0
44045;PMS7003;29709;52.396;16.796;2023-07-29T14:09:42;0;0;0
44045;PMS7003;29709;52.396;16.796;2023-07-29T14:12:55;0;0;0
44045;PMS7003;29709;52.396;16.796;2023-07-29T14:16:08;0;0;0
44045;PMS7003;29709;52.396;16.796;2023-07-29T14:19:21;0;0;0
44045;PMS7003;29709;52.396;16.796;2023-07-29T14:22:36;0;0;0
44045;PMS7003;29709;52.396;16.796;2023-07-29T14:25:49;0;0;0
44045;PMS7003;29709;52.396;16.796;2023-07-29T14:29:02;0;0;0
44045;PMS7003;29709;52.396;16.796;2023-07-29T14:32:15;0;0;0
44045;PMS7003;29709;52.396;16.796;2023-07-29T14:35:28;0;0;0
44045;PMS7003;29709;52.396;16.796;2023-07-29T14:38:42;0;0;0
44045;PMS7003;29709;52.396;16.796;2023-07-29T14:41:55;1;0;0
44045;PMS7003;29709;52.396;16.796;2023-07-29T14:45:08;0;0;0
44045;PMS7003;29709;52.396;16.796;2023-07-29T14:48:22;0;0;0
44045;PMS7003;29709;52.396;16.796;2023-07-29T14:51:36;0;0;0
44045;PMS7003;29709;52.396;16.796;2023-07-29T14:54:50;0;0;0
44045;PMS7003;29709;52.396;16.796;2023-07-29T14:58:04;0;0;0
44045;PMS7003;29709;52.396;16.796;2023-07-29T15:01:17;0;0;0
44045;PMS7003;29709;52.396;16.796;2023-07-29T15:04:30;0;0;0
44045;PMS7003;29709;52.396;16.796;2023-07-29T15:07:43;0;0;0
44045;PMS7003;29709;52.396;16.796;2023-07-29T15:10:57;0;0;0
44045;PMS7003;29709;52.396;16.796;2023-07-29T15:14:10;0;0;0
44045;PMS7003;29709;52.396;16.796;2023-07-29T15:17:23;1;0;0
44045;PMS7003;29709;52.396;16.796;2023-07-29T15:20:36;0;0;0
44045;PMS7003;29709;52.396;16.796;2023-07-29T15:23:50;0;0;0
44045;PMS7003;29709;52.396;16.796;2023-07-29T15:27:03;0;0;0
44045;PMS7003;29709;52.396;16.796;2023-07-29T15:30:16;0;0;0
44045;PMS7003;29709;52.396;16.796;2023-07-29T15:33:30;0;0;0
44045;PMS7003;29709;52.396;16.796;2023-07-29T15:36:47;1;0;0
44045;PMS7003;29709;52.396;16.796;2023-07-29T15:40:01;1;1;0
44045;PMS7003;29709;52.396;16.796;2023-07-29T15:43:14;0;0;0
44045;PMS7003;29709;52.396;16.796;2023-07-29T15:46:27;0;0;0
44045;PMS7003;29709;52.396;16.796;2023-07-29T15:49:41;1;0;0
44045;PMS7003;29709;52.396;16.796;2023-07-29T15:52:54;0;0;0
44045;PMS7003;29709;52.396;16.796;2023-07-29T15:56:07;1;1;1
44045;PMS7003;29709;52.396;16.796;2023-07-29T15:59:20;1;0;0
44045;PMS7003;29709;52.396;16.796;2023-07-29T16:02:33;0;0;0
44045;PMS7003;29709;52.396;16.796;2023-07-29T16:05:47;0;0;0
44045;PMS7003;29709;52.396;16.796;2023-07-29T16:09:01;0;0;0
44045;PMS7003;29709;52.396;16.796;2023-07-29T16:12:18;0;0;0
44045;PMS7003;29709;52.396;16.796;2023-07-29T16:15:31;0;0;0
44045;PMS7003;29709;52.396;16.796;2023-07-29T16:18:45;0;0;0
44045;PMS7003;29709;52.396;16.796;2023-07-29T16:21:58;0;0;0
44045;PMS7003;29709;52.396;16.796;2023-07-29T16:25:12;0;0;0
44045;PMS7003;29709;52.396;16.796;2023-07-29T16:28:26;0;0;0
44045;PMS7003;29709;52.396;16.796;2023-07-29T16:31:39;0;0;0
44045;PMS7003;29709;52.396;16.796;2023-07-29T16:34:52;0;0;0
44045;PMS7003;29709;52.396;16.796;2023-07-29T16:38:06;0;0;0
44045;PMS7003;29709;52.396;16.796;2023-07-29T16:41:20;0;0;0
44045;PMS7003;29709;52.396;16.796;2023-07-29T16:44:33;0;0;0
44045;PMS7003;29709;52.396;16.796;2023-07-29T16:47:46;0;0;0
44045;PMS7003;29709;52.396;16.796;2023-07-29T16:54:23;0;0;0
44045;PMS7003;29709;52.396;16.796;2023-07-29T16:57:36;0;0;0
44045;PMS7003;29709;52.396;16.796;2023-07-29T17:00:50;0;0;0
44045;PMS7003;29709;52.396;16.796;2023-07-29T17:04:03;0;0;0
44045;PMS7003;29709;52.396;16.796;2023-07-29T17:07:17;0;0;0
44045;PMS7003;29709;52.396;16.796;2023-07-29T17:10:30;0;0;0
44045;PMS7003;29709;52.396;16.796;2023-07-29T17:13:43;0;0;0
44045;PMS7003;29709;52.396;16.796;2023-07-29T17:16:56;0;0;0
44045;PMS7003;29709;52.396;16.796;2023-07-29T17:20:09;0;0;0
44045;PMS7003;29709;52.396;16.796;2023-07-29T17:23:23;0;0;0
44045;PMS7003;29709;52.396;16.796;2023-07-29T17:26:36;0;0;0
44045;PMS7003;29709;52.396;16.796;2023-07-29T17:29:49;0;0;0
44045;PMS7003;29709;52.396;16.796;2023-07-29T17:33:03;0;0;0
44045;PMS7003;29709;52.396;16.796;2023-07-29T17:36:16;0;0;0
44045;PMS7003;29709;52.396;16.796;2023-07-29T17:39:29;0;0;0
44045;PMS7003;29709;52.396;16.796;2023-07-29T17:42:43;0;0;0
44045;PMS7003;29709;52.396;16.796;2023-07-29T17:45:56;0;0;0
44045;PMS7003;29709;52.396;16.796;2023-07-29T17:49:09;0;0;0
44045;PMS7003;29709;52.396;16.796;2023-07-29T17:52:24;0;0;0
44045;PMS7003;29709;52.396;16.796;2023-07-29T17:55:37;0;0;0
44045;PMS7003;29709;52.396;16.796;2023-07-29T17:58:51;0;0;0
44045;PMS7003;29709;52.396;16.796;2023-07-29T18:02:05;0;0;0
44045;PMS7003;29709;52.396;16.796;2023-07-29T18:05:19;0;0;0
44045;PMS7003;29709;52.396;16.796;2023-07-29T18:08:32;0;0;0
44045;PMS7003;29709;52.396;16.796;2023-07-29T18:11:47;0;0;0
44045;PMS7003;29709;52.396;16.796;2023-07-29T18:15:00;1;0;0
44045;PMS7003;29709;52.396;16.796;2023-07-29T18:18:13;0;0;0
44045;PMS7003;29709;52.396;16.796;2023-07-29T18:21:26;0;0;0
44045;PMS7003;29709;52.396;16.796;2023-07-29T18:24:40;0;0;0
44045;PMS7003;29709;52.396;16.796;2023-07-29T18:27:53;0;0;0
44045;PMS7003;29709;52.396;16.796;2023-07-29T18:31:06;0;0;0
44045;PMS7003;29709;52.396;16.796;2023-07-29T18:34:20;0;0;0
44045;PMS7003;29709;52.396;16.796;2023-07-29T18:37:35;0;0;0
44045;PMS7003;29709;52.396;16.796;2023-07-29T18:40:48;0;0;0
44045;PMS7003;29709;52.396;16.796;2023-07-29T18:44:01;0;0;0
44045;PMS7003;29709;52.396;16.796;2023-07-29T18:47:14;0;0;0
44045;PMS7003;29709;52.396;16.796;2023-07-29T18:50:27;0;0;0
44045;PMS7003;29709;52.396;16.796;2023-07-29T18:53:41;0;0;0
44045;PMS7003;29709;52.396;16.796;2023-07-29T18:56:54;1;0;0
44045;PMS7003;29709;52.396;16.796;2023-07-29T19:00:08;0;0;0
44045;PMS7003;29709;52.396;16.796;2023-07-29T19:03:22;0;0;0
44045;PMS7003;29709;52.396;16.796;2023-07-29T19:06:35;0;0;0
44045;PMS7003;29709;52.396;16.796;2023-07-29T19:09:48;0;0;0
44045;PMS7003;29709;52.396;16.796;2023-07-29T19:13:04;0;0;0
44045;PMS7003;29709;52.396;16.796;2023-07-29T19:16:17;0;0;0
44045;PMS7003;29709;52.396;16.796;2023-07-29T19:19:33;0;0;0
44045;PMS7003;29709;52.396;16.796;2023-07-29T19:22:46;0;0;0
44045;PMS7003;29709;52.396;16.796;2023-07-29T19:25:59;0;0;0
44045;PMS7003;29709;52.396;16.796;2023-07-29T19:29:13;0;0;0
44045;PMS7003;29709;52.396;16.796;2023-07-29T19:32:28;0;0;0
44045;PMS7003;29709;52.396;16.796;2023-07-29T19:35:41;1;0;0
44045;PMS7003;29709;52.396;16.796;2023-07-29T19:38:54;0;0;0
44045;PMS7003;29709;52.396;16.796;2023-07-29T19:42:07;0;0;0
44045;PMS7003;29709;52.396;16.796;2023-07-29T19:45:21;0;0;0
44045;PMS7003;29709;52.396;16.796;2023-07-29T19:48:34;0;0;0
44045;PMS7003;29709;52.396;16.796;2023-07-29T19:51:47;1;0;0
44045;PMS7003;29709;52.396;16.796;2023-07-29T19:55:00;0;0;0
44045;PMS7003;29709;52.396;16.796;2023-07-29T19:58:14;0;0;0
44045;PMS7003;29709;52.396;16.796;2023-07-29T20:01:27;0;0;0
44045;PMS7003;29709;52.396;16.796;2023-07-29T20:04:40;1;0;0
44045;PMS7003;29709;52.396;16.796;2023-07-29T20:07:53;0;0;0
44045;PMS7003;29709;52.396;16.796;2023-07-29T20:11:06;0;0;0
44045;PMS7003;29709;52.396;16.796;2023-07-29T20:14:20;0;0;0
44045;PMS7003;29709;52.396;16.796;2023-07-29T20:17:33;0;0;0
44045;PMS7003;29709;52.396;16.796;2023-07-29T20:20:47;0;0;0
44045;PMS7003;29709;52.396;16.796;2023-07-29T20:24:01;0;0;0
44045;PMS7003;29709;52.396;16.796;2023-07-29T20:27:14;1;0;0
44045;PMS7003;29709;52.396;16.796;2023-07-29T20:30:28;0;0;0
44045;PMS7003;29709;52.396;16.796;2023-07-29T20:33:45;1;0;0
44045;PMS7003;29709;52.396;16.796;2023-07-29T20:36:58;1;1;1
44045;PMS7003;29709;52.396;16.796;2023-07-29T20:40:11;1;1;1
44045;PMS7003;29709;52.396;16.796;2023-07-29T20:43:25;0;0;0
44045;PMS7003;29709;52.396;16.796;2023-07-29T20:46:38;0;0;0
44045;PMS7003;29709;52.396;16.796;2023-07-29T20:49:52;0;0;0
44045;PMS7003;29709;52.396;16.796;2023-07-29T20:53:06;1;1;1
44045;PMS7003;29709;52.396;16.796;2023-07-29T20:56:19;0;0;0
44045;PMS7003;29709;52.396;16.796;2023-07-29T20:59:32;0;0;0
44045;PMS7003;29709;52.396;16.796;2023-07-29T21:02:46;1;1;0
44045;PMS7003;29709;52.396;16.796;2023-07-29T21:05:59;0;0;0
44045;PMS7003;29709;52.396;16.796;2023-07-29T21:09:12;3;2;1
44045;PMS7003;29709;52.396;16.796;2023-07-29T21:12:27;1;1;1
44045;PMS7003;29709;52.396;16.796;2023-07-29T21:15:40;1;1;0
44045;PMS7003;29709;52.396;16.796;2023-07-29T21:18:53;0;0;0
44045;PMS7003;29709;52.396;16.796;2023-07-29T21:22:06;0;0;0
44045;PMS7003;29709;52.396;16.796;2023-07-29T21:25:19;0;0;0
44045;PMS7003;29709;52.396;16.796;2023-07-29T21:28:32;1;1;0
44045;PMS7003;29709;52.396;16.796;2023-07-29T21:31:46;0;0;0
44045;PMS7003;29709;52.396;16.796;2023-07-29T21:34:59;0;0;0
44045;PMS7003;29709;52.396;16.796;2023-07-29T21:38:13;1;1;0
44045;PMS7003;29709;52.396;16.796;2023-07-29T21:41:27;1;1;0
44045;PMS7003;29709;52.396;16.796;2023-07-29T21:44:41;1;1;1
44045;PMS7003;29709;52.396;16.796;2023-07-29T21:47:54;2;2;1
44045;PMS7003;29709;52.396;16.796;2023-07-29T21:51:07;0;0;0